PORT of KWINANA

Country: Australia Country: Australia [AU]
Latitude / Longitude: -32.206005° / 115.72645° Show on Map
Local Time:  [UTC +8]
UN/LOCODE: AUKWI
Vessels in Port: 23
Expected Arrivals: 15

Recent Arrivals & Departures


Vessel's Name
Arrival (UTC)
Arrival (LT)
Departure (UTC)
Departure (LT)
Vessel Type: Tugs, Pilots etc  PARMELIA 2014-08-22 15:05:00 2014-08-22 23:05:00 2014-08-22 15:35:00 2014-08-22 23:35:00
Vessel Type: Passenger Vessels  MARIANNA 2014-08-22 15:02:00 2014-08-22 23:02:00
Vessel Type: Tankers  BRITISH LIBERTY 2014-08-20 10:07:00 2014-08-20 18:07:00 2014-08-22 13:53:00 2014-08-22 21:53:00
Vessel Type: Cargo Vessels  SUNNY SKY 2014-08-20 21:04:00 2014-08-21 05:04:00 2014-08-22 06:57:00 2014-08-22 14:57:00
Vessel Type: Tugs, Pilots etc  OSPREY 2014-08-22 03:46:00 2014-08-22 11:46:00 2014-08-22 05:08:00 2014-08-22 13:08:00
Vessel Type: Yachts & Others  CORAL SNAKE 2014-08-21 23:05:00 2014-08-22 07:05:00 2014-08-22 04:52:00 2014-08-22 12:52:00
Vessel Type: Tugs, Pilots etc  BRITOIL 72 2014-08-22 02:53:00 2014-08-22 10:53:00
Vessel Type: Tugs, Pilots etc  WAMBIRI 2014-08-19 14:29:00 2014-08-19 22:29:00 2014-08-22 01:46:00 2014-08-22 09:46:00
Vessel Type: Tugs, Pilots etc  PB KAREPO 2014-08-20 07:59:00 2014-08-20 15:59:00 2014-08-22 00:44:00 2014-08-22 08:44:00
Vessel Type: Tugs, Pilots etc  MAGELLAN 1 2014-08-21 23:57:00 2014-08-22 07:57:00

Expected Arrivals


Vessel's Name
Scheduled Arrival (UTC)
Scheduled Arrival (LT)
Estimated Arrival (UTC)
Estimated Arrival (LT)
Vessel Type: Cargo Vessels  WESTERN TOSCA 2014-08-21 18:00:00 2014-08-22 02:00:00
Vessel Type: Passenger Vessels  MARIANNA 2014-08-22 15:00:00 2014-08-22 23:00:00 2014-08-22 14:02:00 2014-08-22 22:02:00
Vessel Type: Tugs, Pilots etc  BRITOIL 72 2014-08-22 22:00:00 2014-08-23 06:00:00
DL OLIVE 2014-08-25 18:00:00 2014-08-26 02:00:00 2014-08-25 12:44:00 2014-08-25 20:44:00
JIN HAN 2014-08-25 19:00:00 2014-08-26 03:00:00 2014-08-25 09:56:00 2014-08-25 17:56:00
Vessel Type: Cargo Vessels  ANSAC KATHRYN 2014-08-26 03:00:00 2014-08-26 11:00:00 2014-08-26 03:53:00 2014-08-26 11:53:00
Vessel Type: Tankers  JUPITER SUN 2014-08-26 14:00:00 2014-08-26 22:00:00 2014-08-26 04:49:00 2014-08-26 12:49:00
ORIENT MATE 2014-08-27 17:00:00 2014-08-28 01:00:00 2014-08-27 06:49:00 2014-08-27 14:49:00
SIGMA INTEGRITY 2014-08-28 10:00:00 2014-08-28 18:00:00 2014-09-01 15:08:00 2014-09-01 23:08:00
Vessel Type: Cargo Vessels  GENCO BEAUTY 2014-08-28 19:00:00 2014-08-29 03:00:00 2014-08-27 23:47:00 2014-08-28 07:47:00

Wind Forecast


    
Time (UTC)
Speed
Direction
Temperature
2014-08-22 18:00:00 6 knots 70° 14°C
2014-08-22 21:00:00 7 knots 55° 14°C
2014-08-23 00:00:00 8 knots 44° 14°C
2014-08-23 03:00:00 6 knots 352° 17°C
2014-08-23 06:00:00 7 knots 299° 18°C
2014-08-23 09:00:00 6 knots 269° 18°C
2014-08-23 12:00:00 3 knots 220° 16°C
2014-08-23 15:00:00 3 knots 86° 16°C
2014-08-23 18:00:00 5 knots 35° 15°C
2014-08-23 21:00:00 5 knots 30° 15°C
2014-08-24 00:00:00 6 knots 25° 15°C
2014-08-24 03:00:00 8 knots 340° 18°C
2014-08-24 06:00:00 11 knots 318° 20°C
2014-08-24 09:00:00 10 knots 318° 19°C
2014-08-24 12:00:00 9 knots 328° 19°C
2014-08-24 15:00:00 10 knots 342° 18°C
2014-08-24 18:00:00 11 knots 355° 18°C

NO_PHOTO

No Photos for this port. Be the first to upload one!